Wann, Oklahoma
Current Conditions -  °F | °C
As of 4:29 AM on Monday 22 Dec 2014 (Local Time) from KBVO Reporting Station
Haze Haze  
Wind Chill: 40°   Ceiling: 400
Heat Index: 45°   Visibility: 2.5mi
Dew Point: 44°   Wind: 9mph
Humidity: 97%   Direction: 140°SE
Pressure: 29.61"   Gusts: NA
Location:  36.92°N, 95.8°W
Report Text: KBVO 221029Z AUTO 14008KT 2 1/2SM BR OVC004 07/07 A2961 RMK AO2 T00720067
Loading
Personal Weather Stations






























Interactive Weather Map New forecast layout! Learn more

10-Day Weather Forecast

Advertisements
Track Severe Weather on mobile